createdAt,value
2022-08-28T00:00:01.811Z,8.90
2022-08-28T00:02:33.662Z,9.07
2022-08-28T00:05:01.638Z,9.95
2022-08-28T00:07:28.161Z,9.68
2022-08-28T00:09:54.754Z,10.82
2022-08-28T00:12:21.673Z,9.23
2022-08-28T00:14:48.122Z,9.85
2022-08-28T00:17:14.662Z,11.20
2022-08-28T00:19:41.391Z,10.85
2022-08-28T00:22:08.148Z,9.98
2022-08-28T00:24:36.085Z,9.35
2022-08-28T00:27:22.196Z,9.00
2022-08-28T00:29:48.750Z,11.13
2022-08-28T00:32:15.285Z,9.40
2022-08-28T00:34:42.115Z,10.85
2022-08-28T00:37:08.592Z,9.63
2022-08-28T00:39:35.078Z,9.93
2022-08-28T00:42:01.729Z,9.77
2022-08-28T00:44:28.958Z,9.30
2022-08-28T00:46:58.028Z,10.20
2022-08-28T00:49:28.438Z,10.43
2022-08-28T00:52:08.660Z,9.82
2022-08-28T00:54:58.350Z,10.95
2022-08-28T00:57:35.038Z,9.60
2022-08-28T01:00:02.296Z,9.60
2022-08-28T01:02:29.294Z,9.27
2022-08-28T01:04:55.933Z,10.32
2022-08-28T01:07:23.194Z,9.73
2022-08-28T01:09:54.017Z,13.23
2022-08-28T01:12:24.405Z,10.50
2022-08-28T01:14:54.547Z,9.95
2022-08-28T01:20:19.458Z,10.73
2022-08-28T01:23:24.977Z,10.20
2022-08-28T01:25:52.445Z,10.25
2022-08-28T01:28:19.135Z,9.30
2022-08-28T01:30:49.398Z,8.30
2022-08-28T01:33:16.376Z,10.05
2022-08-28T01:35:45.946Z,7.82
2022-08-28T01:38:14.266Z,8.02
2022-08-28T01:40:49.666Z,8.73
2022-08-28T01:43:20.297Z,6.80
2022-08-28T01:45:51.903Z,8.38
2022-08-28T01:48:20.165Z,8.52
2022-08-28T01:50:47.984Z,8.82
2022-08-28T01:53:16.382Z,8.07
2022-08-28T01:55:43.480Z,7.30
2022-08-28T01:58:10.867Z,7.18
2022-08-28T02:00:38.770Z,8.10
2022-08-28T02:03:07.063Z,7.03
2022-08-28T02:05:34.551Z,8.57
2022-08-28T02:08:03.390Z,7.55
2022-08-28T02:10:33.404Z,6.68
2022-08-28T02:13:00.497Z,7.30
2022-08-28T02:15:29.438Z,8.85
2022-08-28T02:17:55.969Z,8.82
2022-08-28T02:20:24.225Z,6.45
2022-08-28T02:22:50.957Z,7.60
2022-08-28T02:25:17.938Z,8.10
2022-08-28T02:27:46.000Z,6.55
2022-08-28T02:30:17.107Z,6.30
2022-08-28T02:32:46.033Z,8.50
2022-08-28T02:35:15.275Z,8.98
2022-08-28T02:37:44.200Z,5.53
2022-08-28T02:40:14.268Z,7.55
2022-08-28T02:42:41.917Z,7.00
2022-08-28T02:45:11.743Z,6.60
2022-08-28T02:47:43.581Z,8.23
2022-08-28T02:50:13.069Z,6.32
2022-08-28T02:53:04.831Z,5.07
2022-08-28T02:55:34.218Z,6.90
2022-08-28T02:58:00.889Z,7.95
2022-08-28T03:00:27.311Z,5.78
2022-08-28T03:02:53.913Z,5.38
2022-08-28T03:05:24.538Z,5.40
2022-08-28T03:07:53.346Z,5.35
2022-08-28T03:10:21.697Z,6.53
2022-08-28T03:12:48.333Z,5.25
2022-08-28T03:15:14.881Z,5.10
2022-08-28T03:17:41.432Z,5.82
2022-08-28T03:20:09.951Z,7.82
2022-08-28T03:22:55.060Z,6.22
2022-08-28T03:25:22.878Z,6.50
2022-08-28T03:27:49.962Z,4.70
2022-08-28T03:30:18.137Z,5.00
2022-08-28T03:32:44.584Z,8.13
2022-08-28T03:35:12.015Z,6.68
2022-08-28T03:37:38.664Z,8.15
2022-08-28T03:40:07.489Z,6.05
2022-08-28T03:42:35.094Z,5.38
2022-08-28T03:45:02.071Z,8.20
2022-08-28T03:47:29.701Z,5.47
2022-08-28T03:49:58.051Z,6.07
2022-08-28T03:52:25.164Z,5.63
2022-08-28T03:54:52.681Z,6.78
2022-08-28T03:57:21.575Z,5.72
2022-08-28T03:59:50.019Z,6.32
2022-08-28T04:02:19.239Z,6.07
2022-08-28T04:04:47.186Z,5.07
2022-08-28T04:07:13.666Z,5.60
2022-08-28T04:09:40.227Z,6.07
2022-08-28T04:12:08.241Z,7.68
2022-08-28T04:14:35.197Z,4.90
2022-08-28T04:17:01.846Z,5.28
2022-08-28T04:19:29.638Z,4.28
2022-08-28T04:21:56.053Z,5.45
2022-08-28T04:24:22.567Z,4.07
2022-08-28T04:26:48.977Z,3.88
2022-08-28T04:29:16.017Z,5.35
2022-08-28T04:31:42.825Z,5.15
2022-08-28T04:34:10.398Z,6.30
2022-08-28T04:36:37.933Z,6.47
2022-08-28T04:39:08.490Z,5.68
2022-08-28T04:41:37.506Z,6.35
2022-08-28T04:44:04.746Z,5.70
2022-08-28T04:46:31.986Z,5.57
2022-08-28T04:48:59.271Z,5.93
2022-08-28T04:51:26.341Z,6.68
2022-08-28T04:53:52.813Z,5.32
2022-08-28T04:56:19.257Z,5.75
2022-08-28T04:58:46.589Z,6.63
2022-08-28T05:01:18.741Z,6.03
2022-08-28T05:03:47.001Z,6.57
2022-08-28T05:06:15.697Z,5.18
2022-08-28T05:08:42.545Z,4.22
2022-08-28T05:11:33.215Z,6.35
2022-08-28T05:14:12.662Z,5.80
2022-08-28T05:16:48.020Z,4.68
2022-08-28T05:19:16.050Z,7.13
2022-08-28T05:21:42.624Z,5.20
2022-08-28T05:24:10.266Z,5.60
2022-08-28T05:26:40.016Z,4.57
2022-08-28T05:29:08.095Z,6.25
2022-08-28T05:31:34.952Z,4.95
2022-08-28T05:34:02.245Z,7.45
2022-08-28T05:36:33.152Z,5.00
2022-08-28T05:39:01.488Z,5.60
2022-08-28T05:41:30.236Z,5.47
2022-08-28T05:44:02.045Z,9.95
2022-08-28T05:46:29.374Z,5.40
2022-08-28T05:48:57.141Z,5.18
2022-08-28T05:51:26.498Z,4.18
2022-08-28T05:53:53.858Z,4.53
2022-08-28T05:56:25.018Z,5.70
2022-08-28T05:58:51.518Z,5.90
2022-08-28T06:01:22.101Z,7.30
2022-08-28T06:03:55.128Z,6.15
2022-08-28T06:06:24.614Z,6.40
2022-08-28T06:08:58.392Z,7.88
2022-08-28T06:11:30.353Z,5.75
2022-08-28T06:14:01.682Z,6.28
2022-08-28T06:16:31.069Z,5.38
2022-08-28T06:18:57.637Z,9.38
2022-08-28T06:21:24.726Z,6.25
2022-08-28T06:23:51.709Z,7.93
2022-08-28T06:26:18.271Z,6.05
2022-08-28T06:28:44.808Z,4.72
2022-08-28T06:31:24.411Z,5.25
2022-08-28T06:33:58.134Z,5.95
2022-08-28T06:36:27.430Z,8.52
2022-08-28T06:38:55.511Z,7.63
2022-08-28T06:41:21.930Z,5.60
2022-08-28T06:43:49.309Z,6.93
2022-08-28T06:46:16.528Z,7.88
2022-08-28T06:48:43.254Z,5.47
2022-08-28T06:51:12.146Z,5.28
2022-08-28T06:53:40.016Z,9.13
2022-08-28T06:56:11.191Z,5.15
2022-08-28T06:58:43.064Z,7.85
2022-08-28T07:01:24.455Z,5.55
2022-08-28T07:03:54.326Z,5.70
2022-08-28T07:06:22.775Z,4.70
2022-08-28T07:08:50.231Z,8.48
2022-08-28T07:11:20.880Z,7.45
2022-08-28T07:13:48.710Z,8.57
2022-08-28T07:16:17.905Z,9.18
2022-08-28T07:18:45.505Z,6.10
2022-08-28T07:21:13.562Z,7.28
2022-08-28T07:23:42.358Z,6.45
2022-08-28T07:26:12.309Z,6.95
2022-08-28T07:28:39.389Z,7.32
2022-08-28T07:31:09.905Z,7.85
2022-08-28T07:33:37.739Z,9.02
2022-08-28T07:36:07.145Z,10.30
2022-08-28T07:38:33.875Z,6.72
2022-08-28T07:41:00.428Z,6.13
2022-08-28T07:43:45.403Z,7.43
2022-08-28T07:46:12.331Z,7.32
2022-08-28T07:48:40.962Z,8.80
2022-08-28T07:51:09.522Z,9.38
2022-08-28T07:53:37.348Z,8.05
2022-08-28T07:56:05.350Z,9.20
2022-08-28T07:58:32.052Z,7.68
2022-08-28T08:00:59.189Z,7.78
2022-08-28T08:03:25.806Z,8.38
2022-08-28T08:05:57.856Z,8.25
2022-08-28T08:08:25.038Z,7.18
2022-08-28T08:11:23.719Z,8.43
2022-08-28T08:13:54.073Z,6.68
2022-08-28T08:16:23.308Z,6.55
2022-08-28T08:18:50.939Z,8.70
2022-08-28T08:21:21.409Z,5.90
2022-08-28T08:23:48.407Z,9.55
2022-08-28T08:26:20.822Z,6.20
2022-08-28T08:28:48.052Z,8.18
2022-08-28T08:31:19.956Z,11.35
2022-08-28T08:33:54.028Z,7.82
2022-08-28T08:36:22.845Z,5.38
2022-08-28T08:38:50.569Z,9.05
2022-08-28T08:41:31.798Z,6.40
2022-08-28T08:44:09.499Z,7.95
2022-08-28T08:47:00.883Z,9.55
2022-08-28T08:49:34.450Z,11.15
2022-08-28T08:52:21.453Z,8.55
2022-08-28T08:55:22.113Z,10.40
2022-08-28T08:57:55.463Z,7.47
2022-08-28T09:00:22.277Z,8.52
2022-08-28T09:02:57.234Z,9.02
2022-08-28T09:05:37.794Z,6.53
2022-08-28T09:08:07.041Z,5.75
2022-08-28T09:10:48.229Z,7.60
2022-08-28T09:13:28.224Z,8.57
2022-08-28T09:15:55.053Z,9.75
2022-08-28T09:18:33.155Z,8.05
2022-08-28T09:21:00.628Z,6.50
2022-08-28T09:23:30.064Z,5.47
2022-08-28T09:26:02.621Z,6.30
2022-08-28T09:28:34.244Z,6.40
2022-08-28T09:31:00.694Z,8.48
2022-08-28T09:33:41.651Z,7.90
2022-08-28T09:36:29.947Z,6.95
2022-08-28T09:39:13.120Z,5.28
2022-08-28T09:42:04.731Z,7.72
2022-08-28T09:44:31.335Z,5.68
2022-08-28T09:46:58.237Z,11.23
2022-08-28T09:49:29.991Z,6.95
2022-08-28T09:52:01.834Z,7.80
2022-08-28T09:54:42.209Z,7.10
2022-08-28T09:57:08.730Z,6.15
2022-08-28T09:59:35.197Z,6.78
2022-08-28T10:02:24.451Z,6.70
2022-08-28T10:05:11.652Z,5.93
2022-08-28T10:08:01.185Z,8.52
2022-08-28T10:10:50.853Z,10.07
2022-08-28T10:13:41.787Z,6.10
2022-08-28T10:16:20.420Z,7.40
2022-08-28T10:18:55.174Z,8.80
2022-08-28T10:21:40.946Z,6.05
2022-08-28T10:24:33.823Z,7.72
2022-08-28T10:27:16.833Z,4.82
2022-08-28T10:30:04.278Z,5.70
2022-08-28T10:33:04.032Z,9.55
2022-08-28T10:35:49.078Z,5.20
2022-08-28T10:38:19.835Z,6.68
2022-08-28T10:41:04.244Z,6.68
2022-08-28T10:43:40.057Z,5.50
2022-08-28T10:46:42.463Z,5.28
2022-08-28T10:49:23.963Z,4.38
2022-08-28T10:51:57.125Z,6.13
2022-08-28T10:54:42.387Z,6.97
2022-08-28T10:57:33.173Z,4.95
2022-08-28T11:00:13.564Z,5.05
2022-08-28T11:02:59.326Z,4.82
2022-08-28T11:05:41.110Z,7.70
2022-08-28T11:08:20.048Z,9.10
2022-08-28T11:10:50.397Z,5.25
2022-08-28T11:13:39.031Z,5.28
2022-08-28T11:16:25.218Z,5.22
2022-08-28T11:19:21.088Z,6.53
2022-08-28T11:21:51.321Z,5.20
2022-08-28T11:24:39.662Z,4.70
2022-08-28T11:27:33.072Z,8.32
2022-08-28T11:30:03.316Z,3.90
2022-08-28T11:32:32.702Z,5.10
2022-08-28T11:35:02.768Z,7.50
2022-08-28T11:37:47.833Z,6.38
2022-08-28T11:40:51.670Z,6.25
2022-08-28T11:43:34.595Z,3.75
2022-08-28T11:46:01.070Z,5.85
2022-08-28T11:48:33.283Z,4.65
2022-08-28T11:51:07.867Z,5.50
2022-08-28T11:53:46.130Z,6.68
2022-08-28T11:56:33.147Z,6.38
2022-08-28T11:59:18.157Z,5.60
2022-08-28T12:01:45.355Z,4.45
2022-08-28T12:04:15.539Z,6.40
2022-08-28T12:06:44.697Z,7.60
2022-08-28T12:09:32.476Z,4.78
2022-08-28T12:12:22.090Z,3.45
2022-08-28T12:14:48.433Z,4.63
2022-08-28T12:17:14.788Z,7.07
2022-08-28T12:19:50.024Z,4.57
2022-08-28T12:22:26.501Z,5.25
2022-08-28T12:25:06.178Z,7.10
2022-08-28T12:27:38.449Z,6.35
2022-08-28T12:30:05.775Z,4.88
2022-08-28T12:32:55.932Z,5.38
2022-08-28T12:35:29.895Z,5.50
2022-08-28T12:37:57.321Z,4.18
2022-08-28T12:40:47.418Z,3.65
2022-08-28T12:43:41.610Z,5.75
2022-08-28T12:46:22.885Z,6.53
2022-08-28T12:49:01.893Z,4.10
2022-08-28T12:51:31.437Z,7.28
2022-08-28T12:54:01.356Z,5.80
2022-08-28T12:56:33.428Z,5.55
2022-08-28T12:59:23.040Z,6.90
2022-08-28T13:01:54.290Z,4.07
2022-08-28T13:04:41.125Z,4.18
2022-08-28T13:07:11.871Z,4.07
2022-08-28T13:09:44.955Z,4.78
2022-08-28T13:12:23.879Z,5.53
2022-08-28T13:15:11.358Z,6.63
2022-08-28T13:17:51.192Z,5.35
2022-08-28T13:20:31.194Z,5.60
2022-08-28T13:22:59.023Z,6.07
2022-08-28T13:25:33.371Z,7.35
2022-08-28T13:28:14.507Z,4.68
2022-08-28T13:30:41.212Z,5.88
2022-08-28T13:33:16.622Z,5.03
2022-08-28T13:35:43.646Z,5.50
2022-08-28T13:38:16.779Z,4.95
2022-08-28T13:41:02.749Z,5.45
2022-08-28T13:43:42.166Z,6.38
2022-08-28T13:46:08.705Z,4.45
2022-08-28T13:48:35.177Z,3.78
2022-08-28T13:51:07.537Z,5.57
2022-08-28T13:53:37.376Z,5.43
2022-08-28T13:56:04.174Z,4.97
2022-08-28T13:58:31.061Z,4.90
2022-08-28T14:00:57.953Z,4.80
2022-08-28T14:03:36.502Z,5.32
2022-08-28T14:06:11.509Z,7.07
2022-08-28T14:08:39.745Z,5.40
2022-08-28T14:11:07.184Z,6.72
2022-08-28T14:13:33.716Z,4.20
2022-08-28T14:16:04.545Z,7.80
2022-08-28T14:18:31.362Z,6.93
2022-08-28T14:20:57.853Z,4.90
2022-08-28T14:23:24.404Z,6.78
2022-08-28T14:25:50.904Z,6.38
2022-08-28T14:28:17.626Z,5.97
2022-08-28T14:30:46.621Z,5.53
2022-08-28T14:33:16.650Z,5.90
2022-08-28T14:35:43.291Z,3.70
2022-08-28T14:38:10.839Z,6.28
2022-08-28T14:40:42.721Z,4.65
2022-08-28T14:43:10.808Z,7.50
2022-08-28T14:45:49.357Z,6.00
2022-08-28T14:48:18.150Z,4.00
2022-08-28T14:50:46.852Z,5.35
2022-08-28T14:53:14.796Z,5.25
2022-08-28T14:55:44.169Z,6.35
2022-08-28T14:58:10.800Z,5.72
2022-08-28T15:00:42.643Z,4.50
2022-08-28T15:03:10.915Z,4.47
2022-08-28T15:05:37.691Z,5.20
2022-08-28T15:08:12.118Z,4.65
2022-08-28T15:10:40.520Z,5.47
2022-08-28T15:13:09.923Z,5.60
2022-08-28T15:15:39.498Z,5.88
2022-08-28T15:18:10.367Z,4.53
2022-08-28T15:20:39.236Z,4.30
2022-08-28T15:23:05.859Z,3.70
2022-08-28T15:25:32.331Z,5.93
2022-08-28T15:27:58.753Z,5.97
2022-08-28T15:30:25.298Z,5.63
2022-08-28T15:32:51.773Z,4.93
2022-08-28T15:35:18.492Z,3.60
2022-08-28T15:37:45.011Z,4.68
2022-08-28T15:40:30.514Z,3.50
2022-08-28T15:42:57.103Z,4.00
2022-08-28T15:45:23.706Z,4.70
2022-08-28T15:47:50.273Z,6.63
2022-08-28T15:50:16.832Z,3.47
2022-08-28T15:52:46.492Z,5.20
2022-08-28T15:55:13.181Z,5.15
2022-08-28T15:57:39.686Z,5.03
2022-08-28T16:00:10.316Z,3.58
2022-08-28T16:02:37.192Z,4.32
2022-08-28T16:05:04.170Z,4.93
2022-08-28T16:07:30.619Z,5.82
2022-08-28T16:09:57.186Z,5.13
2022-08-28T16:12:23.931Z,6.18
2022-08-28T16:14:50.435Z,6.38
2022-08-28T16:17:17.009Z,3.40
2022-08-28T16:19:44.003Z,3.75
2022-08-28T16:22:11.668Z,5.25
2022-08-28T16:24:38.256Z,4.18
2022-08-28T16:27:06.489Z,4.53
2022-08-28T16:29:36.910Z,3.90
2022-08-28T16:32:04.342Z,3.58
2022-08-28T16:34:32.308Z,6.22
2022-08-28T16:37:00.040Z,4.38
2022-08-28T16:39:27.041Z,4.20
2022-08-28T16:41:53.458Z,6.43
2022-08-28T16:44:26.186Z,3.05
2022-08-28T16:46:54.175Z,6.05
2022-08-28T16:49:21.561Z,3.80
2022-08-28T16:51:48.039Z,5.88
2022-08-28T16:54:15.361Z,3.90
2022-08-28T16:56:41.930Z,3.83
2022-08-28T16:59:10.392Z,3.40
2022-08-28T17:01:38.020Z,5.13
2022-08-28T17:04:07.623Z,3.42
2022-08-28T17:06:35.382Z,4.93
2022-08-28T17:09:01.944Z,3.70
2022-08-28T17:11:29.548Z,4.80
2022-08-28T17:13:56.690Z,2.83
2022-08-28T17:16:25.432Z,4.13
2022-08-28T17:18:53.087Z,4.95
2022-08-28T17:21:40.341Z,4.10
2022-08-28T17:24:07.561Z,6.22
2022-08-28T17:26:34.150Z,3.42
2022-08-28T17:29:00.666Z,6.97
2022-08-28T17:31:27.330Z,3.22
2022-08-28T17:33:54.301Z,4.40
2022-08-28T17:36:33.585Z,3.85
2022-08-28T17:39:06.006Z,5.32
2022-08-28T17:41:33.361Z,4.78
2022-08-28T17:44:00.820Z,5.55
2022-08-28T17:46:27.518Z,4.13
2022-08-28T17:48:55.868Z,3.53
2022-08-28T17:51:40.469Z,5.35
2022-08-28T17:54:15.543Z,6.43
2022-08-28T17:56:42.381Z,5.90
2022-08-28T17:59:09.999Z,4.78
2022-08-28T18:01:36.504Z,3.53
2022-08-28T18:04:03.755Z,3.97
2022-08-28T18:06:32.098Z,4.68
2022-08-28T18:08:58.766Z,4.57
2022-08-28T18:11:25.699Z,5.13
2022-08-28T18:13:52.206Z,4.35
2022-08-28T18:16:18.910Z,4.72
2022-08-28T18:18:45.356Z,4.15
2022-08-28T18:21:13.405Z,3.80
2022-08-28T18:23:40.520Z,3.65
2022-08-28T18:26:08.270Z,6.90
2022-08-28T18:28:34.735Z,3.53
2022-08-28T18:31:02.393Z,4.28
2022-08-28T18:33:29.649Z,4.63
2022-08-28T18:35:56.789Z,4.95
2022-08-28T18:38:27.742Z,4.68
2022-08-28T18:40:55.401Z,3.33
2022-08-28T18:43:22.484Z,4.93
2022-08-28T18:45:49.233Z,4.05
2022-08-28T18:48:15.689Z,3.50
2022-08-28T18:50:46.273Z,3.75
2022-08-28T18:53:14.368Z,5.93
2022-08-28T18:55:40.941Z,4.60
2022-08-28T18:58:07.404Z,3.60
2022-08-28T19:00:33.993Z,5.15
2022-08-28T19:03:00.656Z,2.92
2022-08-28T19:05:27.577Z,3.63
2022-08-28T19:07:54.397Z,5.35
2022-08-28T19:10:33.302Z,5.38
2022-08-28T19:13:01.514Z,4.43
2022-08-28T19:15:28.364Z,5.68
2022-08-28T19:17:55.094Z,6.50
2022-08-28T19:20:22.241Z,4.65
2022-08-28T19:22:49.595Z,3.58
2022-08-28T19:25:28.884Z,4.15
2022-08-28T19:28:01.340Z,3.53
2022-08-28T19:30:33.478Z,5.45
2022-08-28T19:33:02.363Z,3.90
2022-08-28T19:35:29.019Z,5.47
2022-08-28T19:37:55.587Z,6.20
2022-08-28T19:40:22.834Z,3.83
2022-08-28T19:42:50.069Z,5.32
2022-08-28T19:45:18.343Z,3.78
2022-08-28T19:47:46.773Z,5.07
2022-08-28T19:50:14.436Z,4.40
2022-08-28T19:52:43.222Z,4.22
2022-08-28T19:55:18.242Z,4.78
2022-08-28T19:57:46.778Z,3.67
2022-08-28T20:00:15.304Z,4.32
2022-08-28T20:02:42.130Z,5.47
2022-08-28T20:05:09.379Z,4.40
2022-08-28T20:07:36.093Z,3.33
2022-08-28T20:10:03.699Z,4.82
2022-08-28T20:12:30.150Z,4.38
2022-08-28T20:15:00.127Z,8.43
2022-08-28T20:17:29.681Z,6.50
2022-08-28T20:20:02.224Z,5.72
2022-08-28T20:22:29.563Z,4.93
2022-08-28T20:24:56.123Z,5.45
2022-08-28T20:27:22.579Z,4.72
2022-08-28T20:29:49.033Z,4.78
2022-08-28T20:32:15.616Z,4.50
2022-08-28T20:34:44.507Z,4.32
2022-08-28T20:37:11.346Z,4.40
2022-08-28T20:39:41.392Z,6.03
2022-08-28T20:42:09.412Z,5.22
2022-08-28T20:44:36.421Z,8.15
2022-08-28T20:47:02.933Z,5.72
2022-08-28T20:49:29.393Z,4.13
2022-08-28T20:52:00.935Z,6.18
2022-08-28T20:54:31.164Z,5.82
2022-08-28T20:57:02.358Z,4.63
2022-08-28T20:59:35.568Z,4.63
2022-08-28T21:02:16.939Z,4.43
2022-08-28T21:04:45.464Z,5.38
2022-08-28T21:07:15.101Z,4.30
2022-08-28T21:10:03.948Z,4.88
2022-08-28T21:12:28.231Z,5.43
2022-08-28T21:14:54.771Z,5.40
2022-08-28T21:17:28.827Z,4.47
2022-08-28T21:19:57.384Z,5.32
2022-08-28T21:22:23.825Z,5.50
2022-08-28T21:24:50.328Z,5.45
2022-08-28T21:27:18.540Z,4.15
2022-08-28T21:29:45.899Z,7.03
2022-08-28T21:32:12.554Z,5.15
2022-08-28T21:34:39.021Z,5.47
2022-08-28T21:37:06.317Z,4.72
2022-08-28T21:39:33.508Z,7.13
2022-08-28T21:42:00.223Z,6.97
2022-08-28T21:44:26.702Z,5.60
2022-08-28T21:46:53.215Z,5.53
2022-08-28T21:49:20.304Z,5.55
2022-08-28T21:51:47.046Z,6.38
2022-08-28T21:54:13.583Z,5.78
2022-08-28T21:56:40.459Z,7.55
2022-08-28T21:59:07.070Z,4.65
2022-08-28T22:01:33.596Z,6.25
2022-08-28T22:04:00.158Z,5.25
2022-08-28T22:06:26.819Z,5.47
2022-08-28T22:08:54.634Z,6.40
2022-08-28T22:11:24.905Z,6.05
2022-08-28T22:13:51.744Z,5.07
2022-08-28T22:16:18.364Z,5.72
2022-08-28T22:18:44.958Z,5.75
2022-08-28T22:21:36.982Z,7.10
2022-08-28T22:24:04.416Z,6.40
2022-08-28T22:26:30.925Z,5.97
2022-08-28T22:28:57.784Z,4.85
2022-08-28T22:31:24.581Z,7.03
2022-08-28T22:33:52.079Z,6.35
2022-08-28T22:36:19.927Z,5.93
2022-08-28T22:38:53.181Z,5.90
2022-08-28T22:41:20.570Z,5.88
2022-08-28T22:43:48.236Z,5.15
2022-08-28T22:46:16.808Z,6.55
2022-08-28T22:48:43.422Z,6.60
2022-08-28T22:51:15.369Z,4.07
2022-08-28T22:53:43.625Z,4.47
2022-08-28T22:56:12.156Z,5.30
2022-08-28T22:58:39.691Z,5.03
2022-08-28T23:01:12.243Z,4.80
2022-08-28T23:03:38.872Z,4.85
2022-08-28T23:06:05.955Z,7.80
2022-08-28T23:08:34.209Z,5.93
2022-08-28T23:11:01.210Z,6.30
2022-08-28T23:13:28.154Z,4.78
2022-08-28T23:15:54.599Z,4.85
2022-08-28T23:18:21.230Z,6.70
2022-08-28T23:20:50.577Z,4.38
2022-08-28T23:23:18.736Z,3.83
2022-08-28T23:25:45.655Z,4.93
2022-08-28T23:28:12.444Z,5.83
2022-08-28T23:30:41.173Z,5.25
2022-08-28T23:33:10.548Z,5.93
2022-08-28T23:35:38.321Z,8.90
2022-08-28T23:38:12.343Z,7.80
2022-08-28T23:40:39.661Z,3.95
2022-08-28T23:43:06.785Z,6.37
2022-08-28T23:45:33.738Z,5.80
2022-08-28T23:48:00.300Z,5.07
2022-08-28T23:50:27.114Z,4.43
2022-08-28T23:52:53.721Z,8.27
2022-08-28T23:55:20.830Z,4.07
2022-08-28T23:57:47.504Z,6.90
